Time;durP1;ratioP1;P1;durP2;ratioP2;P2;SDS_P1;SDS_P2;PMS_P1;PMS_P2;Temp;Humidity;BMP_temperature;BMP_pressure;BME280_temperature;BME280_humidity;BME280_pressure;Samples;Min_cycle;Max_cycle;Signal;HPM_P1;HPM_P2
2023/08/18 00:02:09;;;;;;;26.13;13.15;;;;;;;17.99;100.00;101598.91;5089161;28;20482;-72
2023/08/18 00:04:35;;;;;;;25.25;13.43;;;;;;;17.98;100.00;101599.91;5105602;28;20026;-72
2023/08/18 00:07:00;;;;;;;25.38;14.05;;;;;;;17.96;100.00;101599.19;5111494;28;20031;-71
2023/08/18 00:09:25;;;;;;;26.77;12.75;;;;;;;17.97;100.00;101595.47;5081445;28;20076;-72
2023/08/18 00:11:50;;;;;;;23.98;12.98;;;;;;;17.95;100.00;101595.63;5104011;28;20463;-72
2023/08/18 00:14:16;;;;;;;32.13;12.85;;;;;;;17.95;100.00;101589.31;5115089;28;20035;-72
2023/08/18 00:16:41;;;;;;;25.55;13.25;;;;;;;17.94;100.00;101595.75;5096708;28;20422;-72
2023/08/18 00:19:07;;;;;;;23.42;12.38;;;;;;;17.92;100.00;101586.88;5089160;28;20056;-72
2023/08/18 00:21:32;;;;;;;25.77;12.32;;;;;;;17.91;100.00;101587.91;5114191;27;20024;-72
2023/08/18 00:23:57;;;;;;;24.52;12.48;;;;;;;17.88;100.00;101583.56;5115694;28;20487;-72
2023/08/18 00:26:23;;;;;;;22.83;11.60;;;;;;;17.87;100.00;101579.13;5113968;28;20027;-72
2023/08/18 00:28:48;;;;;;;23.27;10.90;;;;;;;17.86;100.00;101579.25;5114407;28;20128;-71
2023/08/18 00:31:13;;;;;;;24.75;11.90;;;;;;;17.86;100.00;101585.53;5111410;28;20036;-72
2023/08/18 00:33:39;;;;;;;21.65;10.73;;;;;;;17.85;100.00;101574.81;5113638;28;20383;-72
2023/08/18 00:36:04;;;;;;;23.88;11.85;;;;;;;17.85;100.00;101582.97;5090659;28;20048;-72
2023/08/18 00:38:30;;;;;;;23.42;11.90;;;;;;;17.81;100.00;101582.41;5093556;28;20023;-71
2023/08/18 00:40:55;;;;;;;23.42;11.60;;;;;;;17.80;100.00;101576.13;5095588;28;20035;-71
2023/08/18 00:43:21;;;;;;;22.23;11.38;;;;;;;17.81;100.00;101574.25;5114089;28;20478;-72
2023/08/18 00:45:47;;;;;;;22.73;12.45;;;;;;;17.78;100.00;101571.81;5111596;28;20032;-72
2023/08/18 00:48:13;;;;;;;23.27;10.75;;;;;;;17.75;100.00;101574.81;5115422;28;20019;-72
2023/08/18 00:50:39;;;;;;;26.52;12.85;;;;;;;17.75;100.00;101575.66;5109435;28;20019;-71
2023/08/18 00:53:05;;;;;;;21.27;11.30;;;;;;;17.74;100.00;101578.53;5112096;28;20053;-72
2023/08/18 00:55:30;;;;;;;22.83;12.10;;;;;;;17.73;100.00;101577.69;5113104;28;20095;-72
2023/08/18 00:58:00;;;;;;;21.52;10.93;;;;;;;17.72;100.00;101578.69;5096451;28;20028;-71
2023/08/18 01:00:26;;;;;;;21.92;11.48;;;;;;;17.72;100.00;101575.97;5107781;28;20064;-72
2023/08/18 01:02:52;;;;;;;23.77;11.45;;;;;;;17.71;100.00;101586.97;5111219;28;20379;-74
2023/08/18 01:05:18;;;;;;;22.45;10.90;;;;;;;17.70;100.00;101577.97;5110299;28;20031;-75
2023/08/18 01:07:44;;;;;;;21.75;10.43;;;;;;;17.69;100.00;101580.81;5113171;28;20427;-75
2023/08/18 01:10:10;;;;;;;21.88;10.85;;;;;;;17.68;100.00;101573.66;5105446;28;20031;-75
2023/08/18 01:12:49;;;;;;;22.23;11.02;;;;;;;17.67;100.00;101571.94;5113285;28;20031;-75
2023/08/18 01:15:18;;;;;;;21.83;11.10;;;;;;;17.66;100.00;101579.25;5088755;28;20590;-75
2023/08/18 01:17:51;;;;;;;23.13;11.13;;;;;;;17.65;100.00;101581.09;5113184;28;20555;-75
2023/08/18 01:20:18;;;;;;;23.15;12.15;;;;;;;17.65;100.00;101583.81;5109899;27;20436;-75
2023/08/18 01:22:45;;;;;;;20.45;10.38;;;;;;;17.64;100.00;101583.94;5092038;28;20083;-75
2023/08/18 01:25:10;;;;;;;23.17;10.98;;;;;;;17.63;100.00;101566.78;5092097;28;20028;-75
2023/08/18 01:27:36;;;;;;;20.90;11.80;;;;;;;17.63;100.00;101560.50;5106744;28;20325;-74
2023/08/18 01:30:03;;;;;;;21.73;11.48;;;;;;;17.62;100.00;101559.63;5111733;28;20088;-75
2023/08/18 01:32:53;;;;;;;23.50;10.77;;;;;;;17.61;100.00;101547.06;5092670;28;20114;-75
2023/08/18 01:35:23;;;;;;;22.45;11.02;;;;;;;17.59;100.00;101550.91;5104795;28;20044;-75
2023/08/18 01:37:49;;;;;;;22.92;11.65;;;;;;;17.59;100.00;101545.47;5090117;28;20036;-75
2023/08/18 01:40:16;;;;;;;22.25;10.70;;;;;;;17.57;100.00;101540.19;5087424;28;20016;-75
2023/08/18 01:42:41;;;;;;;22.77;10.68;;;;;;;17.56;100.00;101540.31;5111350;28;20400;-75
2023/08/18 01:45:11;;;;;;;22.52;10.77;;;;;;;17.56;100.00;101538.44;5105173;28;20123;-75
2023/08/18 01:47:36;;;;;;;;;;;;;;;17.62;100.00;101537.03;5108214;27;20038;-74
2023/08/18 01:50:01;;;;;;;25.08;10.82;;;;;;;17.54;100.00;101536.88;5085926;28;19919;-75
2023/08/18 01:52:26;;;;;;;21.92;11.52;;;;;;;17.53;100.00;101544.19;5098650;28;20597;-75
2023/08/18 01:54:52;;;;;;;21.85;10.77;;;;;;;17.53;100.00;101537.91;5110963;28;20019;-75
2023/08/18 01:57:17;;;;;;;20.67;11.02;;;;;;;17.50;100.00;101539.03;5107701;28;20022;-75
2023/08/18 01:59:42;;;;;;;22.65;12.00;;;;;;;17.49;100.00;101534.59;5093955;27;20020;-75
2023/08/18 02:02:08;;;;;;;21.02;11.00;;;;;;;17.47;100.00;101533.88;5086139;28;20023;-75
2023/08/18 02:04:33;;;;;;;21.77;10.57;;;;;;;17.47;100.00;101528.44;5112167;28;20019;-75
2023/08/18 02:06:58;;;;;;;22.95;11.40;;;;;;;17.44;100.00;101529.56;5093609;28;20430;-76
2023/08/18 02:09:24;;;;;;;22.48;11.35;;;;;;;17.43;100.00;101525.13;5103666;28;20024;-74
2023/08/18 02:11:49;;;;;;;22.15;11.13;;;;;;;17.42;100.00;101528.88;5103500;28;20027;-75
2023/08/18 02:14:14;;;;;;;21.85;10.35;;;;;;;17.44;100.00;101532.28;5109420;28;20137;-73
2023/08/18 02:16:41;;;;;;;23.30;11.27;;;;;;;17.43;100.00;101538.72;5085350;28;20351;-74
2023/08/18 02:19:09;;;;;;;26.88;11.98;;;;;;;17.42;100.00;101526.16;5096698;27;20027;-73
2023/08/18 02:21:34;;;;;;;22.45;10.98;;;;;;;17.40;100.00;101522.69;5080818;28;20027;-73
2023/08/18 02:24:00;;;;;;;21.23;10.98;;;;;;;17.40;100.00;101527.28;5106773;28;20027;-73
2023/08/18 02:26:25;;;;;;;23.13;12.10;;;;;;;17.39;100.00;101522.84;5091412;28;20032;-73
2023/08/18 02:28:50;;;;;;;20.98;11.75;;;;;;;17.38;100.00;101532.88;5104245;28;20060;-73
2023/08/18 02:31:16;;;;;;;22.20;11.02;;;;;;;17.36;100.00;101531.28;5104099;28;20543;-73
2023/08/18 02:33:42;;;;;;;22.48;11.35;;;;;;;17.33;100.00;101526.97;5103491;28;20166;-73
2023/08/18 02:36:07;;;;;;;21.60;11.38;;;;;;;17.33;100.00;101528.84;5078525;28;20119;-73
2023/08/18 02:38:35;;;;;;;22.27;11.25;;;;;;;17.31;100.00;101526.28;5106698;28;20102;-73
2023/08/18 02:41:00;;;;;;;21.42;11.70;;;;;;;17.29;100.00;101510.09;5111495;28;20054;-73
2023/08/18 02:43:25;;;;;;;24.13;12.25;;;;;;;17.30;100.00;101517.25;5089719;28;20106;-73
2023/08/18 02:45:58;;;;;;;23.70;12.45;;;;;;;17.29;100.00;101520.09;5106833;28;20030;-73
2023/08/18 02:48:27;;;;;;;22.80;12.73;;;;;;;17.27;100.00;101517.53;5107552;28;20019;-73
2023/08/18 02:51:12;;;;;;;22.75;11.05;;;;;;;17.30;100.00;101517.25;5092617;28;20039;-73
2023/08/18 02:53:38;;;;;;;22.70;11.35;;;;;;;17.28;100.00;101518.41;5102515;28;20071;-73
2023/08/18 02:56:03;;;;;;;23.95;12.57;;;;;;;17.27;100.00;101516.69;5106092;28;20461;-73
2023/08/18 02:58:30;;;;;;;24.23;12.98;;;;;;;17.24;100.00;101512.38;5106031;28;20114;-73
2023/08/18 03:01:01;;;;;;;25.70;12.05;;;;;;;17.24;100.00;101506.94;5108026;28;20027;-73
2023/08/18 03:03:26;;;;;;;23.00;11.60;;;;;;;17.25;100.00;101513.25;5103083;28;20145;-73
2023/08/18 03:05:52;;;;;;;23.58;12.25;;;;;;;17.24;100.00;101516.97;5103993;28;20032;-73
2023/08/18 03:08:17;;;;;;;22.33;12.05;;;;;;;17.25;100.00;101521.41;5089274;28;20034;-73
2023/08/18 03:10:42;;;;;;;21.63;11.68;;;;;;;17.24;100.00;101519.69;5085992;28;20106;-73
2023/08/18 03:13:08;;;;;;;24.35;12.40;;;;;;;17.22;100.00;101513.50;5105817;28;20735;-73
2023/08/18 03:15:40;;;;;;;25.38;12.68;;;;;;;17.21;100.00;101511.81;5101918;27;20035;-73
2023/08/18 03:18:05;;;;;;;24.50;12.20;;;;;;;17.19;100.00;101505.63;5091039;28;20046;-73
2023/08/18 03:20:31;;;;;;;23.52;12.20;;;;;;;17.19;100.00;101509.22;5091304;28;20020;-73
2023/08/18 03:22:56;;;;;;;23.00;11.70;;;;;;;17.16;100.00;101509.50;5092994;28;20551;-72
2023/08/18 03:25:22;;;;;;;23.52;11.70;;;;;;;17.15;100.00;101517.81;5086001;28;20023;-72
2023/08/18 03:27:47;;;;;;;23.80;13.15;;;;;;;17.15;100.00;101509.66;5105875;28;20079;-72
2023/08/18 03:30:13;;;;;;;23.35;12.05;;;;;;;17.12;100.00;101508.91;5104908;28;20111;-71
2023/08/18 03:32:38;;;;;;;24.65;13.30;;;;;;;17.11;100.00;101512.63;5088603;28;20028;-72
2023/08/18 03:35:04;;;;;;;24.05;12.40;;;;;;;17.12;100.00;101513.50;5113708;28;20042;-73
2023/08/18 03:37:29;;;;;;;23.48;13.02;;;;;;;17.08;100.00;101506.63;5111944;28;20043;-73
2023/08/18 03:39:55;;;;;;;25.42;12.75;;;;;;;17.07;100.00;101508.50;5094389;28;20022;-73
2023/08/18 03:42:21;;;;;;;24.95;13.43;;;;;;;17.05;100.00;101512.34;5107006;28;20020;-73
2023/08/18 03:44:46;;;;;;;25.58;12.95;;;;;;;17.02;100.00;101510.75;5109907;28;20024;-73
2023/08/18 03:47:12;;;;;;;24.60;13.45;;;;;;;17.03;100.00;101509.75;5106642;28;20028;-73
2023/08/18 03:49:37;;;;;;;24.40;13.35;;;;;;;17.02;100.00;101508.03;5116612;28;20084;-73
2023/08/18 03:52:02;;;;;;;25.00;12.77;;;;;;;17.02;100.00;101504.47;5107577;28;20032;-73
2023/08/18 03:54:28;;;;;;;26.38;13.95;;;;;;;17.01;100.00;101510.88;5108761;28;20069;-73
2023/08/18 03:56:53;;;;;;;25.30;13.35;;;;;;;16.99;100.00;101511.03;5098965;28;20027;-73
2023/08/18 03:59:18;;;;;;;25.83;14.77;;;;;;;16.98;100.00;101503.88;5108689;28;20050;-73
2023/08/18 04:01:44;;;;;;;24.60;12.63;;;;;;;16.98;100.00;101501.16;5107633;28;20742;-73
2023/08/18 04:04:09;;;;;;;23.73;12.73;;;;;;;16.95;100.00;101504.16;5115238;28;20039;-73
2023/08/18 04:06:34;;;;;;;24.17;12.68;;;;;;;16.94;100.00;101505.13;5094539;28;20084;-73
2023/08/18 04:09:09;;;;;;;24.13;13.85;;;;;;;16.96;100.00;101513.19;5113775;28;20118;-72
2023/08/18 04:11:35;;;;;;;24.33;13.77;;;;;;;16.94;100.00;101506.03;5118412;28;20020;-73
2023/08/18 04:14:02;;;;;;;24.98;13.65;;;;;;;16.93;100.00;101511.59;5112511;28;20038;-72
2023/08/18 04:16:29;;;;;;;28.92;13.73;;;;;;;16.93;100.00;101506.16;5092854;28;20019;-72
2023/08/18 04:18:54;;;;;;;26.75;14.07;;;;;;;16.94;100.00;101510.56;5094515;28;20019;-73
2023/08/18 04:21:19;;;;;;;25.80;13.15;;;;;;;16.93;100.00;101503.44;5095570;28;20046;-73
2023/08/18 04:23:46;;;;;;;27.17;14.68;;;;;;;16.92;100.00;101491.72;5118226;28;20054;-72
2023/08/18 04:26:12;;;;;;;25.25;13.73;;;;;;;16.92;100.00;101490.84;5118982;28;20055;-73
2023/08/18 04:28:38;;;;;;;24.35;13.60;;;;;;;16.91;100.00;101489.13;5112720;28;20028;-72
2023/08/18 04:31:03;;;;;;;27.92;14.38;;;;;;;16.91;100.00;101497.28;5105414;28;20342;-73
2023/08/18 04:33:28;;;;;;;25.88;13.05;;;;;;;16.92;100.00;101482.72;5114382;28;20027;-72
2023/08/18 04:35:54;;;;;;;24.33;13.32;;;;;;;16.91;100.00;101483.69;5085848;28;20540;-72
2023/08/18 04:38:19;;;;;;;27.42;14.00;;;;;;;16.89;100.00;101480.28;5088671;28;20024;-71
2023/08/18 04:40:44;;;;;;;26.08;14.05;;;;;;;16.89;100.00;101494.69;5107793;28;20111;-71
2023/08/18 04:43:10;;;;;;;25.77;14.35;;;;;;;16.89;100.00;101493.84;5101655;28;20108;-71
2023/08/18 04:45:35;;;;;;;27.98;14.40;;;;;;;16.87;100.00;101495.81;5111023;28;20106;-71
2023/08/18 04:48:00;;;;;;;27.77;13.98;;;;;;;16.87;100.00;101499.41;5094418;28;20034;-71
2023/08/18 04:50:25;;;;;;;26.00;13.75;;;;;;;16.88;100.00;101495.72;5094634;28;20469;-71
2023/08/18 04:52:51;;;;;;;25.00;14.15;;;;;;;16.87;100.00;101503.97;5105128;28;20466;-72
2023/08/18 04:55:16;;;;;;;26.52;15.18;;;;;;;16.85;100.00;101501.41;5083879;28;20051;-72
2023/08/18 04:57:41;;;;;;;29.77;14.10;;;;;;;16.85;100.00;101500.50;5096447;28;20506;-72
2023/08/18 05:00:09;;;;;;;25.77;14.35;;;;;;;16.85;100.00;101505.94;5092809;28;20031;-72
2023/08/18 05:02:34;;;;;;;25.13;13.82;;;;;;;16.85;100.00;101503.22;5104169;28;20517;-72
2023/08/18 05:05:00;;;;;;;29.17;14.85;;;;;;;16.87;100.00;101509.41;5110934;28;20059;-72
2023/08/18 05:07:26;;;;;;;26.88;14.35;;;;;;;16.88;100.00;101500.28;5096727;28;20122;-72
2023/08/18 05:09:51;;;;;;;27.58;14.13;;;;;;;16.90;100.00;101503.72;5109880;28;20144;-72
2023/08/18 05:12:17;;;;;;;25.55;14.00;;;;;;;16.89;100.00;101499.28;5090512;28;20063;-72
2023/08/18 05:14:42;;;;;;;26.35;14.88;;;;;;;16.91;100.00;101491.84;5093421;28;20068;-72
2023/08/18 05:17:08;;;;;;;27.17;13.48;;;;;;;16.92;100.00;101496.28;5108832;27;20479;-72
2023/08/18 05:19:33;;;;;;;32.63;15.02;;;;;;;16.91;100.00;101487.28;5108592;27;20027;-71
2023/08/18 05:21:59;;;;;;;27.75;14.18;;;;;;;16.91;100.00;101476.44;5111877;28;20031;-71
2023/08/18 05:24:24;;;;;;;29.05;15.07;;;;;;;16.92;100.00;101486.28;5113553;28;20024;-71
2023/08/18 05:26:49;;;;;;;31.85;14.45;;;;;;;16.91;100.00;101484.56;5085298;28;20098;-72
2023/08/18 05:29:16;;;;;;;27.27;14.73;;;;;;;16.92;100.00;101482.72;5089178;28;20148;-71
2023/08/18 05:31:45;;;;;;;27.65;14.90;;;;;;;16.92;100.00;101483.56;5113961;28;20037;-71
2023/08/18 05:34:10;;;;;;;27.07;14.57;;;;;;;16.92;100.00;101480.84;5105886;28;20073;-73
2023/08/18 05:36:36;;;;;;;27.50;14.77;;;;;;;16.93;100.00;101479.00;5090485;28;20487;-72
2023/08/18 05:39:02;;;;;;;29.05;16.40;;;;;;;16.95;100.00;101482.44;5092102;28;20034;-72
2023/08/18 05:41:27;;;;;;;27.73;16.83;;;;;;;16.96;100.00;101484.16;5106596;28;20031;-72
2023/08/18 05:43:52;;;;;;;27.52;14.85;;;;;;;16.97;100.00;101490.44;5085984;28;20031;-71
2023/08/18 05:46:18;;;;;;;30.90;15.15;;;;;;;16.97;100.00;101483.16;5087714;28;20123;-72
2023/08/18 05:48:43;;;;;;;25.77;14.10;;;;;;;16.98;100.00;101487.59;5095599;28;20390;-71
2023/08/18 05:51:08;;;;;;;29.60;15.27;;;;;;;16.98;100.00;101494.88;5108110;28;20042;-72
2023/08/18 05:53:34;;;;;;;27.17;14.38;;;;;;;16.98;100.00;101490.28;5113812;28;20019;-73
2023/08/18 05:55:59;;;;;;;27.83;15.10;;;;;;;16.98;100.00;101484.00;5100875;28;20101;-73
2023/08/18 05:58:25;;;;;;;24.60;13.98;;;;;;;16.98;100.00;101489.44;5094346;28;20544;-73
2023/08/18 06:00:50;;;;;;;27.85;14.90;;;;;;;16.97;100.00;101490.44;5101756;28;20028;-73
2023/08/18 06:03:19;;;;;;;27.02;14.63;;;;;;;16.96;100.00;101491.47;5108256;28;20103;-73
2023/08/18 06:05:45;;;;;;;27.27;15.13;;;;;;;16.97;100.00;101493.16;5105876;28;20046;-73
2023/08/18 06:08:10;;;;;;;25.23;14.25;;;;;;;16.98;100.00;101495.72;5092899;28;20028;-74
2023/08/18 06:10:35;;;;;;;28.23;15.88;;;;;;;16.99;100.00;101497.44;5109028;28;21874;-73
2023/08/18 06:13:01;;;;;;;30.08;16.52;;;;;;;16.98;100.00;101495.72;5108422;28;20099;-73
2023/08/18 06:15:26;;;;;;;27.17;15.40;;;;;;;16.98;100.00;101495.72;5077944;28;20039;-73
2023/08/18 06:17:51;;;;;;;29.63;15.70;;;;;;;16.97;100.00;101493.16;5093709;28;20016;-73
2023/08/18 06:20:17;;;;;;;28.52;15.18;;;;;;;16.97;100.00;101502.19;5110072;28;20360;-73
2023/08/18 06:22:42;;;;;;;27.05;14.82;;;;;;;16.98;100.00;101495.72;5087773;28;20126;-73
2023/08/18 06:25:09;;;;;;;29.15;17.15;;;;;;;16.98;100.00;101498.44;5092300;28;20085;-73
2023/08/18 06:27:34;;;;;;;29.67;14.80;;;;;;;16.97;100.00;101490.44;5087096;28;20106;-73
2023/08/18 06:29:59;;;;;;;26.58;15.50;;;;;;;16.94;100.00;101489.72;5102180;28;20111;-73
2023/08/18 06:32:25;;;;;;;29.85;15.23;;;;;;;16.97;100.00;101493.16;5083728;28;20035;-73
2023/08/18 06:34:50;;;;;;;30.38;16.52;;;;;;;16.97;100.00;101483.16;5096457;28;20030;-73
2023/08/18 06:37:16;;;;;;;29.55;17.30;;;;;;;16.99;100.00;101488.47;5106447;28;20052;-73
2023/08/18 06:39:41;;;;;;;28.42;14.90;;;;;;;16.97;100.00;101494.03;5102173;28;20103;-73
2023/08/18 06:42:07;;;;;;;27.02;17.10;;;;;;;16.99;100.00;101486.59;5082295;28;20032;-73
2023/08/18 06:44:34;;;;;;;31.67;17.23;;;;;;;16.97;100.00;101488.59;5105958;28;20035;-73
2023/08/18 06:46:59;;;;;;;29.38;15.98;;;;;;;16.98;100.00;101486.72;5099678;28;20027;-73
2023/08/18 06:49:25;;;;;;;30.15;16.83;;;;;;;16.97;100.00;101488.59;5109487;28;20027;-73
2023/08/18 06:51:50;;;;;;;31.55;18.15;;;;;;;16.98;100.00;101494.88;5108973;28;20493;-73
2023/08/18 06:54:15;;;;;;;31.88;18.27;;;;;;;16.99;100.00;101485.75;5088145;28;20034;-75
2023/08/18 06:56:41;;;;;;;31.20;18.35;;;;;;;16.99;100.00;101483.88;5085020;28;20070;-74
2023/08/18 06:59:08;;;;;;;31.73;18.65;;;;;;;17.03;100.00;101485.31;5085223;28;20364;-75
2023/08/18 07:01:33;;;;;;;33.17;18.00;;;;;;;17.03;100.00;101482.59;5110092;28;20026;-75
2023/08/18 07:03:59;;;;;;;33.35;18.50;;;;;;;17.06;100.00;101476.91;5107109;28;20027;-75
2023/08/18 07:06:24;;;;;;;31.38;17.83;;;;;;;17.09;100.00;101471.19;5102982;28;20024;-75
2023/08/18 07:08:49;;;;;;;29.52;17.45;;;;;;;17.12;100.00;101467.34;5111182;28;20043;-76
2023/08/18 07:11:15;;;;;;;28.55;16.55;;;;;;;17.15;100.00;101468.91;5100744;28;20020;-75
2023/08/18 07:13:42;;;;;;;31.25;16.90;;;;;;;17.19;100.00;101468.50;5085603;28;20028;-79
2023/08/18 07:16:08;;;;;;;30.13;16.25;;;;;;;17.22;100.00;101462.78;5103423;28;20043;-80
2023/08/18 07:18:33;;;;;;;31.98;18.02;;;;;;;17.25;100.00;101464.34;5098886;28;20023;-80
2023/08/18 07:20:59;;;;;;;31.02;16.88;;;;;;;17.24;100.00;101460.75;5098635;28;20036;-82
2023/08/18 07:23:25;;;;;;;27.92;16.80;;;;;;;17.27;100.00;101465.06;5104552;28;20081;-83
2023/08/18 07:25:50;;;;;;;29.98;17.98;;;;;;;17.30;100.00;101462.91;5082327;28;20421;-83
2023/08/18 07:28:15;;;;;;;29.30;16.92;;;;;;;17.35;100.00;101473.38;5091836;28;20118;-83
2023/08/18 07:30:41;;;;;;;29.85;17.67;;;;;;;17.37;100.00;101474.06;5104309;28;20108;-83
2023/08/18 07:33:06;;;;;;;30.50;18.20;;;;;;;17.40;100.00;101476.50;5093439;28;20031;-83
2023/08/18 07:35:31;;;;;;;32.28;19.00;;;;;;;17.44;100.00;101477.09;5085410;28;20469;-78
2023/08/18 07:37:57;;;;;;;31.05;18.08;;;;;;;17.44;100.00;101486.09;5083719;28;20527;-79
2023/08/18 07:40:22;;;;;;;29.90;17.05;;;;;;;17.46;100.00;101475.94;5094980;28;20022;-79
2023/08/18 07:42:48;;;;;;;31.45;18.33;;;;;;;17.45;100.00;101471.53;5094868;28;20118;-78
2023/08/18 07:45:13;;;;;;;31.02;18.13;;;;;;;17.48;100.00;101473.06;5072123;28;20035;-79
2023/08/18 07:47:39;;;;;;;32.25;17.83;;;;;;;17.51;100.00;101469.22;5075423;28;20031;-79
2023/08/18 07:50:07;;;;;;;31.70;18.20;;;;;;;17.52;100.00;101477.22;5080595;28;20143;-79
2023/08/18 07:52:33;;;;;;;31.75;18.23;;;;;;;17.57;100.00;101479.50;5076454;28;20048;-79
2023/08/18 07:54:58;;;;;;;31.77;17.95;;;;;;;17.58;100.00;101476.66;5064049;28;20131;-79
2023/08/18 07:57:24;;;;;;;30.98;17.40;;;;;;;17.61;100.00;101480.94;5096707;28;20027;-79
2023/08/18 07:59:49;;;;;;;31.20;18.00;;;;;;;17.65;100.00;101494.09;5083255;28;20519;-79
2023/08/18 08:02:14;;;;;;;30.23;17.80;;;;;;;17.69;100.00;101486.53;5085166;28;20028;-79
2023/08/18 08:04:40;;;;;;;34.70;19.58;;;;;;;17.69;100.00;101485.66;5096075;28;20114;-79
2023/08/18 08:07:05;;;;;;;32.85;17.83;;;;;;;17.68;100.00;101482.09;5083075;28;20106;-79
2023/08/18 08:09:32;;;;;;;33.08;20.25;;;;;;;17.70;100.00;101488.25;5082340;28;20089;-81
2023/08/18 08:11:57;;;;;;;34.03;19.95;;;;;;;17.72;100.00;101482.69;5080055;28;20019;-78
2023/08/18 08:14:22;;;;;;;33.33;19.38;;;;;;;17.74;100.00;101492.38;5104109;28;20093;-77
2023/08/18 08:16:48;;;;;;;32.05;18.88;;;;;;;17.73;100.00;101490.69;5080355;28;20471;-79
2023/08/18 08:19:13;;;;;;;34.83;19.85;;;;;;;17.77;100.00;101496.69;5093302;28;20483;-77
2023/08/18 08:21:40;;;;;;;33.92;19.58;;;;;;;17.78;100.00;101495.69;5097479;28;20497;-76
2023/08/18 08:24:05;;;;;;;33.00;20.10;;;;;;;17.78;100.00;101490.25;5103445;28;20043;-76
2023/08/18 08:26:31;;;;;;;33.58;19.38;;;;;;;17.79;100.00;101495.53;5098040;28;20051;-77
2023/08/18 08:28:56;;;;;;;35.72;21.63;;;;;;;17.78;100.00;101493.81;5084662;28;20362;-76
2023/08/18 08:31:22;;;;;;;34.05;19.70;;;;;;;17.76;100.00;101487.69;5076099;28;20058;-76
2023/08/18 08:33:47;;;;;;;30.83;19.00;;;;;;;17.80;100.00;101496.38;5084408;28;20036;-77
2023/08/18 08:36:12;;;;;;;31.60;18.65;;;;;;;17.82;100.00;101495.25;5102988;27;20047;-76
2023/08/18 08:38:38;;;;;;;34.58;19.92;;;;;;;17.84;100.00;101505.97;5083207;28;20035;-76
2023/08/18 08:41:04;;;;;;;33.03;20.30;;;;;;;17.89;100.00;101510.97;5097645;28;20418;-77
2023/08/18 08:43:29;;;;;;;31.88;17.92;;;;;;;17.92;100.00;101510.72;5096971;28;20020;-78
2023/08/18 08:45:57;;;;;;;31.95;18.58;;;;;;;17.92;100.00;101514.31;5106632;27;20079;-78
2023/08/18 08:48:25;;;;;;;31.65;18.00;;;;;;;17.94;100.00;101519.63;5101999;28;20028;-77
2023/08/18 08:50:55;;;;;;;30.60;18.13;;;;;;;17.93;100.00;101515.16;5088191;28;20463;-76
2023/08/18 08:53:30;;;;;;;30.48;18.17;;;;;;;17.92;100.00;101510.72;5100995;28;20072;-76
2023/08/18 08:56:00;;;;;;;32.55;17.60;;;;;;;17.93;100.00;101516.00;5097669;28;20024;-76
2023/08/18 08:58:29;;;;;;;29.52;17.05;;;;;;;17.96;100.00;101512.16;5094394;28;20569;-73
2023/08/18 09:00:55;;;;;;;31.40;17.30;;;;;;;17.98;100.00;101515.59;5108506;28;20035;-73
2023/08/18 09:03:20;;;;;;;30.52;17.02;;;;;;;18.03;100.00;101524.19;5111889;28;20019;-73
2023/08/18 09:05:46;;;;;;;31.92;17.17;;;;;;;18.06;100.00;101521.16;5086266;28;20099;-73
2023/08/18 09:08:11;;;;;;;30.45;17.42;;;;;;;18.09;100.00;101526.31;5112649;28;20034;-73
2023/08/18 09:10:39;;;;;;;31.17;18.27;;;;;;;18.12;100.00;101522.44;5111621;28;20035;-73
2023/08/18 09:13:04;;;;;;;29.77;16.83;;;;;;;18.14;100.00;101523.16;5085385;28;20391;-73
2023/08/18 09:15:29;;;;;;;29.23;16.10;;;;;;;18.17;100.00;101531.03;5113175;28;20024;-73
2023/08/18 09:17:56;;;;;;;28.98;16.23;;;;;;;18.16;100.00;101524.72;5094668;28;20038;-73
2023/08/18 09:20:22;;;;;;;29.48;17.50;;;;;;;18.20;100.00;101521.72;5090118;28;20114;-73
2023/08/18 09:22:53;;;;;;;30.13;18.48;;;;;;;18.21;100.00;101515.28;5104269;28;20358;-73
2023/08/18 09:25:18;;;;;;;28.80;16.52;;;;;;;18.25;100.00;101511.25;5102798;28;20540;-74
2023/08/18 09:27:44;;;;;;;32.17;17.88;;;;;;;18.28;100.00;101502.81;5086571;28;20110;-74
2023/08/18 09:30:10;;;;;;;31.45;18.58;;;;;;;18.30;100.00;101493.50;5107873;28;20023;-74
2023/08/18 09:32:36;;;;;;;30.05;18.02;;;;;;;18.29;100.00;101490.91;5100087;28;20357;-73
2023/08/18 09:35:01;;;;;;;31.13;18.98;;;;;;;18.31;100.00;101500.63;5086776;28;20489;-74
2023/08/18 09:37:32;;;;;;;30.48;17.90;;;;;;;18.37;100.00;101501.06;5105394;28;20026;-74
2023/08/18 09:39:58;;;;;;;31.80;18.30;;;;;;;18.38;100.00;101495.47;5107276;28;20020;-74
2023/08/18 09:42:23;;;;;;;39.47;20.17;;;;;;;18.45;100.00;101501.19;5101354;28;20905;-76
2023/08/18 09:44:49;;;;;;;35.25;19.58;;;;;;;18.51;100.00;101496.00;5103110;28;20038;-80
2023/08/18 09:47:17;;;;;;;31.38;17.77;;;;;;;18.58;100.00;101495.38;5111649;28;20043;-77
2023/08/18 09:49:46;;;;;;;30.70;18.75;;;;;;;18.58;100.00;101496.25;5090683;28;20020;-78
2023/08/18 09:52:15;;;;;;;34.13;20.83;;;;;;;18.61;100.00;101489.63;5101024;28;20020;-77
2023/08/18 09:55:06;;;;;;;35.40;20.05;;;;;;;18.65;100.00;101493.78;5117456;28;20043;-77
2023/08/18 09:57:40;;;;;;;31.55;18.55;;;;;;;18.68;100.00;101488.03;5083732;28;20095;-76
2023/08/18 10:00:09;;;;;;;29.23;18.10;;;;;;;18.74;100.00;101484.72;5108757;28;20020;-77
2023/08/18 10:02:34;;;;;;;;;;;;;;;18.82;100.00;101486.69;5093825;28;20073;-76
2023/08/18 10:05:01;;;;;;;30.42;18.83;;;;;;;18.85;100.00;101481.78;5094224;28;20358;-78
2023/08/18 10:07:26;;;;;;;33.53;20.90;;;;;;;18.89;100.00;101486.97;5101412;27;20024;-76
2023/08/18 10:09:54;;;;;;;34.55;21.50;;;;;;;18.92;100.00;101492.97;5088651;28;20037;-76
2023/08/18 10:12:20;;;;;;;33.03;19.67;;;;;;;18.94;100.00;101484.66;5099120;27;20023;-76
2023/08/18 10:14:47;;;;;;;33.65;20.92;;;;;;;18.97;100.00;101479.75;5092307;28;20138;-74
2023/08/18 10:17:14;;;;;;;36.28;22.20;;;;;;;18.97;100.00;101474.28;5098073;28;20031;-76
2023/08/18 10:19:49;;;;;;;34.60;21.65;;;;;;;19.03;100.00;101472.84;5095978;28;20012;-74
2023/08/18 10:22:16;;;;;;;34.95;21.23;;;;;;;19.06;100.00;101477.97;5094658;28;20024;-77
2023/08/18 10:24:46;;;;;;;35.45;22.45;;;;;;;19.09;100.00;101472.22;5132310;28;20007;-79
2023/08/18 10:27:13;;;;;;;36.53;21.67;;;;;;;19.14;100.00;101463.59;5119993;22;20115;-74
2023/08/18 10:29:42;;;;;;;38.70;26.02;;;;;;;19.21;100.00;101460.09;5112180;28;20027;-73
2023/08/18 10:32:08;;;;;;;39.65;26.92;;;;;;;19.24;100.00;101460.78;5117620;28;20032;-73
2023/08/18 10:34:36;;;;;;;38.25;24.88;;;;;;;19.28;100.00;101459.47;5119340;28;20107;-74
2023/08/18 10:37:03;;;;;;;37.63;24.77;;;;;;;19.32;100.00;101459.00;5101821;28;20027;-74
2023/08/18 10:39:36;;;;;;;37.22;23.98;;;;;;;19.36;100.00;101465.03;5104524;28;20024;-74
2023/08/18 10:42:08;;;;;;;37.38;24.45;;;;;;;19.40;100.00;101460.97;5120412;28;20524;-74
2023/08/18 10:44:34;;;;;;;37.10;24.00;;;;;;;19.45;100.00;101447.72;5107163;28;20023;-74
2023/08/18 10:47:23;;;;;;;35.95;24.67;;;;;;;19.49;100.00;101451.84;5103944;28;20023;-74
2023/08/18 10:49:48;;;;;;;37.67;24.92;;;;;;;19.55;100.00;101451.22;5117293;28;20107;-74
2023/08/18 10:52:15;;;;;;;36.72;24.00;;;;;;;19.61;100.00;101448.91;5129499;28;20015;-75
2023/08/18 10:54:40;;;;;;;36.33;23.05;;;;;;;19.65;100.00;101442.97;5130312;28;20032;-74
2023/08/18 10:57:05;;;;;;;35.17;23.63;;;;;;;19.71;100.00;101444.22;5129496;28;20039;-75
2023/08/18 10:59:30;;;;;;;34.95;24.17;;;;;;;19.79;100.00;101438.84;5114369;28;20057;-77